MAS35 RJTT-WMKK
Flight info
| Callsign | MAS35 |
|---|---|
| Flight time | N/A |
| Altitude | 38000 |
| Route | LAXAS Y56 NADAR Z26 TONAR/N0487F400 Y52 IGURU G581 TULTO Q13 KABAM N892 MIGUG/K0904F400 N892 MELAS/N0489F400 N892 MABAL M758 IDSEL Y335 PADLI Y343 SAROX SAROX1H |
| Aircraft | A359/H-SDE2E3GHIJ3J4J5LM1ORWXY/LB1D1 |
Departure
| Time | 2026-05-08 04:01 |
|---|---|
| Airport | Tokyo Haneda International Airport (RJTT) |
Arrival
| Time | N/A |
|---|---|
| Airport | Kuala Lumpur International Airport (WMKK) |
| Time | Latitude | Longitude | Altitude | Speed | Heading |
|---|---|---|---|---|---|
| 2026-05-08 03:20 | 35.55113 | 139.79006 | 30 ft | 0 kts | 238° |
| 2026-05-08 03:24 | 35.55114 | 139.79006 | 30 ft | 0 kts | 238° |
| 2026-05-08 03:24 | 35.55114 | 139.79007 | 30 ft | 0 kts | 238° |
| 2026-05-08 03:36 | 35.55114 | 139.79008 | 30 ft | 0 kts | 238° |
| 2026-05-08 03:45 | 35.55119 | 139.79018 | 30 ft | 3 kts | 242° |
| 2026-05-08 03:45 | 35.55127 | 139.79040 | 29 ft | 3 kts | 259° |
| 2026-05-08 03:46 | 35.55128 | 139.79064 | 27 ft | 3 kts | 283° |
| 2026-05-08 03:46 | 35.55121 | 139.79086 | 26 ft | 3 kts | 311° |
| 2026-05-08 03:46 | 35.55108 | 139.79100 | 28 ft | 1 kts | 330° |
| 2026-05-08 03:46 | 35.55123 | 139.79089 | 26 ft | 3 kts | 330° |
| 2026-05-08 03:47 | 35.55137 | 139.79080 | 29 ft | 0 kts | 330° |
| 2026-05-08 03:51 | 35.55140 | 139.79078 | 29 ft | 4 kts | 330° |
| 2026-05-08 03:51 | 35.55173 | 139.79067 | 29 ft | 8 kts | 355° |
| 2026-05-08 03:52 | 35.55227 | 139.79100 | 30 ft | 10 kts | 45° |
| 2026-05-08 03:52 | 35.55265 | 139.79174 | 30 ft | 11 kts | 60° |
| 2026-05-08 03:52 | 35.55314 | 139.79257 | 29 ft | 12 kts | 34° |
| 2026-05-08 03:52 | 35.55397 | 139.79244 | 29 ft | 13 kts | 332° |
| 2026-05-08 03:53 | 35.55514 | 139.79163 | 29 ft | 16 kts | 330° |
| 2026-05-08 03:53 | 35.55578 | 139.79117 | 29 ft | 16 kts | 330° |
| 2026-05-08 03:53 | 35.55675 | 139.79048 | 29 ft | 17 kts | 330° |
| 2026-05-08 03:53 | 35.55782 | 139.78972 | 29 ft | 19 kts | 330° |
| 2026-05-08 03:54 | 35.55899 | 139.78889 | 29 ft | 20 kts | 330° |
| 2026-05-08 03:54 | 35.56023 | 139.78801 | 29 ft | 21 kts | 330° |
| 2026-05-08 03:54 | 35.56152 | 139.78710 | 29 ft | 21 kts | 330° |
| 2026-05-08 03:54 | 35.56265 | 139.78631 | 29 ft | 15 kts | 330° |
| 2026-05-08 03:55 | 35.56349 | 139.78571 | 29 ft | 14 kts | 328° |
| 2026-05-08 03:55 | 35.56381 | 139.78472 | 29 ft | 13 kts | 248° |
| 2026-05-08 03:55 | 35.56337 | 139.78374 | 28 ft | 13 kts | 240° |
| 2026-05-08 03:55 | 35.56289 | 139.78271 | 29 ft | 14 kts | 240° |
| 2026-05-08 03:56 | 35.56237 | 139.78163 | 29 ft | 15 kts | 239° |
| 2026-05-08 03:56 | 35.56183 | 139.78050 | 29 ft | 16 kts | 239° |
| 2026-05-08 03:56 | 35.56143 | 139.77968 | 29 ft | 11 kts | 241° |
| 2026-05-08 03:56 | 35.56109 | 139.77894 | 29 ft | 11 kts | 241° |
| 2026-05-08 03:57 | 35.56071 | 139.77810 | 29 ft | 12 kts | 241° |
| 2026-05-08 03:57 | 35.56028 | 139.77717 | 29 ft | 13 kts | 239° |
| 2026-05-08 03:57 | 35.55979 | 139.77615 | 29 ft | 14 kts | 239° |
| 2026-05-08 03:57 | 35.55926 | 139.77506 | 29 ft | 16 kts | 240° |
| 2026-05-08 03:58 | 35.55867 | 139.77384 | 29 ft | 17 kts | 239° |
| 2026-05-08 03:58 | 35.55840 | 139.77282 | 29 ft | 11 kts | 269° |
| 2026-05-08 03:58 | 35.55825 | 139.77194 | 29 ft | 7 kts | 239° |
| 2026-05-08 03:58 | 35.55819 | 139.77187 | 29 ft | 4 kts | 225° |
| 2026-05-08 03:59 | 35.55798 | 139.77161 | 29 ft | 4 kts | 225° |
| 2026-05-08 03:59 | 35.55780 | 139.77139 | 30 ft | 3 kts | 225° |
| 2026-05-08 03:59 | 35.55763 | 139.77121 | 31 ft | 4 kts | 213° |
| 2026-05-08 03:59 | 35.55735 | 139.77113 | 31 ft | 4 kts | 184° |
| 2026-05-08 04:00 | 35.55702 | 139.77123 | 31 ft | 2 kts | 156° |
| 2026-05-08 04:00 | 35.55701 | 139.77124 | 31 ft | 0 kts | 154° |
| 2026-05-08 04:00 | 35.55667 | 139.77146 | 31 ft | 21 kts | 152° |
| 2026-05-08 04:00 | 35.55339 | 139.77375 | 31 ft | 86 kts | 150° |
| 2026-05-08 04:01 | 35.54651 | 139.77860 | 31 ft | 140 kts | 150° |
| 2026-05-08 04:01 | 35.53731 | 139.78535 | 425 ft | 152 kts | 150° |
| 2026-05-08 04:01 | 35.52900 | 139.79224 | 1252 ft | 138 kts | 152° |
| 2026-05-08 04:01 | 35.52148 | 139.79915 | 1786 ft | 135 kts | 149° |
| 2026-05-08 04:02 | 35.51307 | 139.80531 | 2043 ft | 149 kts | 161° |
| 2026-05-08 04:02 | 35.50303 | 139.81114 | 2330 ft | 169 kts | 160° |
| 2026-05-08 04:02 | 35.49187 | 139.81808 | 2681 ft | 191 kts | 159° |
| 2026-05-08 04:02 | 35.47954 | 139.82625 | 3008 ft | 214 kts | 158° |
| 2026-05-08 04:03 | 35.46587 | 139.83562 | 3323 ft | 235 kts | 156° |
| 2026-05-08 04:03 | 35.43486 | 139.85138 | 4320 ft | 247 kts | 182° |
| 2026-05-08 04:03 | 35.41831 | 139.84699 | 4962 ft | 245 kts | 210° |
| 2026-05-08 04:04 | 35.40423 | 139.83522 | 5688 ft | 245 kts | 220° |
| 2026-05-08 04:04 | 35.39086 | 139.82212 | 6440 ft | 246 kts | 220° |
| 2026-05-08 04:04 | 35.37748 | 139.80900 | 7229 ft | 247 kts | 221° |
| 2026-05-08 04:04 | 35.36402 | 139.79591 | 8044 ft | 247 kts | 221° |
| 2026-05-08 04:05 | 35.35050 | 139.78283 | 8902 ft | 247 kts | 221° |
| 2026-05-08 04:05 | 35.33695 | 139.76976 | 9704 ft | 249 kts | 221° |
| 2026-05-08 04:05 | 35.32326 | 139.75659 | 10368 ft | 255 kts | 221° |
| 2026-05-08 04:05 | 35.30888 | 139.74273 | 10712 ft | 272 kts | 221° |
| 2026-05-08 04:06 | 35.29394 | 139.72749 | 11069 ft | 288 kts | 223° |
| 2026-05-08 04:06 | 35.27838 | 139.71094 | 11417 ft | 304 kts | 223° |